• Join FlightAware (Why Join?)
  • Login
  • US Flag 
04:05AM EDT


 

Airport Tracker/Info


-or-


 

Live Flight TrackerFlight Track Log ✈ BAW2648 ✈ 22-May-2013 ✈ EGKK / LGW - LATI / TIA

Flight Track Log - Related Links

Times and Time Zones

All times are in EDT time to prevent confusion due to time zone crossing. See the BAW2648 flight status page for this flight to view local times or setup timezone preferences in your user account.

Time Position Orientation Groundspeed Altitude Reporting Facility
EDT Latitude Longitude Course Direction KTS MPH feet Rate Location/Type
02:20PM 51.1383 -0.2654 273° West 212 244 300  Level FlightAware UK
02:21PM 51.1391 -0.2937 273° West 224 258 1,000 2,460 Climbing FlightAware UK
02:21PM 51.1758 -0.3186 337° Northwest 246 283 2,800 2,580 Climbing FlightAware UK
02:22PM 51.1931 -0.3017 32° Northeast 250 288 3,600 2,700 Climbing FlightAware UK
02:22PM 51.2026 -0.2461 75° East 262 302 5,000 2,520 Climbing FlightAware UK
02:22PM 51.2028 -0.2088 89° East 272 313 5,700 2,220 Climbing FlightAware UK
02:23PM 51.2029 -0.1567 90° East 284 327 6,600 2,400 Climbing FlightAware UK
02:23PM 51.2030 -0.0900 90° East 286 329 7,900 1,440 Climbing FlightAware UK
02:24PM 51.2034 0.0295 90° East 342 394 8,500 480 Climbing FlightAware UK
02:24PM 51.2040 0.0952 89° East 354 407 8,500  Level FlightAware UK
02:25PM 51.2055 0.2272 89° East 352 405 8,500 180 Level FlightAware UK
02:26PM 51.2058 0.2765 89° East 354 407 8,700 960 Climbing FlightAware UK
02:26PM 51.2066 0.3598 89° East 360 414 9,300 1,080 Climbing FlightAware UK
02:26PM 51.2074 0.4116 89° East 362 417 9,600 1,500 Climbing FlightAware UK
02:27PM 51.2078 0.4626 89° East 362 417 10,200 2,640 Climbing FlightAware UK
02:27PM 51.2082 0.5142 89° East 364 419 11,200 3,000 Climbing FlightAware UK
02:27PM 51.2084 0.5650 90° East 366 421 12,000 2,280 Climbing FlightAware UK
02:28PM 51.2080 0.6360 90° East 378 435 12,800 2,100 Climbing FlightAware UK
02:28PM 51.2051 0.6913 95° East 388 447 13,500 2,700 Climbing FlightAware UK
02:28PM 51.2011 0.7641 95° East 390 449 14,700 3,000 Climbing FlightAware UK
02:29PM 51.1981 0.8200 95° East 392 451 15,600 2,820 Climbing FlightAware UK
02:29PM 51.1953 0.8757 95° East 396 456 16,400 2,460 Climbing FlightAware UK
02:29PM 51.1924 0.9315 95° East 398 458 17,100 2,280 Climbing FlightAware UK
02:30PM 51.1899 0.9887 94° East 402 463 17,800 2,280 Climbing FlightAware UK
02:30PM 51.1871 1.0459 94° East 408 470 18,500 2,160 Climbing FlightAware UK
02:30PM 51.1843 1.1046 94° East 412 474 19,100 1,980 Climbing FlightAware UK
02:30PM 51.1814 1.1626 95° East 414 476 19,700 1,800 Climbing FlightAware UK
02:31PM 51.1783 1.2226 95° East 418 481 20,200 1,620 Climbing FlightAware UK
02:31PM 51.1752 1.2830 95° East 424 488 20,700 1,500 Climbing FlightAware UK
02:31PM 51.1721 1.3441 95° East 422 486 21,100 1,320 Climbing FlightAware UK
02:32PM 51.1655 1.4700 95° East 434 499 21,900 1,320 Climbing FlightAware UK
02:32PM 51.1621 1.5347 95° East 438 504 22,300 1,500 Climbing FlightAware UK
02:33PM 51.1567 1.5998 97° East 440 506 22,800 1,680 Climbing FlightAware UK
02:33PM 51.1306 1.7057 111° Southeast 444 511 23,700 1,740 Climbing FlightAware UK
02:33PM 51.1080 1.7901 113° Southeast 446 513 24,400 1,740 Climbing FlightAware UK
02:34PM 51.0863 1.8738 112° Southeast 446 513 25,100 1,680 Climbing FlightAware UK
02:34PM 51.0698 1.9382 112° Southeast 448 516 25,600 1,800 Climbing FlightAware UK
02:34PM 51.0537 2.0012 112° Southeast 446 513 26,200 1,980 Climbing FlightAware UK
02:35PM 51.0371 2.0656 112° Southeast 446 513 26,800 2,160 Climbing FlightAware UK
02:35PM 51.0201 2.1277 114° Southeast 442 509 27,500 2,160 Climbing FlightAware UK
02:35PM 51.0028 2.1900 114° Southeast 440 506 28,100 1,800 Climbing FlightAware UK
02:36PM 50.9853 2.2520 114° Southeast 434 499 28,600 1,380 Climbing FlightAware UK
02:36PM 50.9621 2.3340 114° Southeast 432 497 29,100 1,140 Climbing FlightAware UK
02:36PM 50.9450 2.3960 114° Southeast 438 504 29,400 1,140 Climbing FlightAware UK
02:37PM 50.9280 2.4577 114° Southeast 438 504 29,800 1,320 Climbing FlightAware UK
02:37PM 50.9105 2.5207 114° Southeast 438 504 30,200 1,140 Climbing FlightAware UK
02:37PM 50.8931 2.5829 114° Southeast 436 502 30,500 1,140 Climbing FlightAware UK
02:38PM 50.8759 2.6453 114° Southeast 436 502 30,900 1,380 Climbing FlightAware UK
02:38PM 50.8530 2.7291 113° Southeast 436 502 31,500 840 Climbing FlightAware UK
02:38PM 50.8361 2.7914 113° Southeast 440 506 31,500  Level FlightAware UK
02:40PM 50.7614 3.0596 114° Southeast 438 504 31,500  Level FlightAware UK
02:40PM 50.7378 3.1412 115° Southeast 436 502 31,500  Level FlightAware UK
02:40PM 50.7197 3.2029 115° Southeast 436 502 31,500  Level FlightAware UK
02:41PM 50.7018 3.2637 115° Southeast 436 502 31,500  Level FlightAware UK
02:41PM 50.6780 3.3448 115° Southeast 436 502 31,500  Level FlightAware UK
02:41PM 50.6544 3.4259 115° Southeast 438 504 31,500  Level FlightAware UK
02:42PM 50.6368 3.4864 115° Southeast 438 504 31,500  Level FlightAware UK
02:42PM 50.5899 3.6476 115° Southeast 442 509 31,500  Level FlightAware UK
02:43PM 50.5664 3.7279 115° Southeast 440 506 31,500  Level FlightAware UK
02:43PM 50.5369 3.8278 115° Southeast 440 506 31,500  Level FlightAware UK
02:46PM 50.3962 4.3030 115° Southeast 1 1 31,500  Level FlightAware UK
02:46PM 50.3554 4.4400 115° Southeast 1 1 31,500  Level FlightAware UK
02:47PM 50.3313 4.5158 116° Southeast 1 1 31,500  Level FlightAware UK
02:47PM 50.3009 4.6101 117° Southeast 1 1 31,500  Level FlightAware UK
02:48PM 50.2781 4.6879 115° Southeast 1 1 31,500  Level FlightAware UK
02:50PM 50.1847 4.8986 125° Southeast  Level Estimated
02:57PM 49.8075 5.7332 125° Southeast  Level Estimated
02:58PM 49.7531 5.8513 125° Southeast  Level Estimated
02:59PM 49.6986 5.9692 126° Southeast  Level Estimated
03:00PM 49.6440 6.0869 126° Southeast  Level Estimated
03:01PM 49.5892 6.2042 126° Southeast  Level Estimated
03:02PM 49.5344 6.3213 126° Southeast  Level Estimated
03:03PM 49.4794 6.4382 126° Southeast  Level Estimated
03:04PM 49.4243 6.5548 126° Southeast  Level Estimated
03:05PM 49.3691 6.6711 126° Southeast  Level Estimated
03:06PM 49.3138 6.7871 126° Southeast  Level Estimated
03:07PM 49.2584 6.9029 126° Southeast  Level Estimated
03:08PM 49.2028 7.0184 126° Southeast  Level Estimated
03:09PM 49.1471 7.1337 126° Southeast  Level Estimated
03:10PM 49.0914 7.2487 126° Southeast  Level Estimated
03:11PM 49.0355 7.3635 127° Southeast  Level Estimated
03:12PM 48.9795 7.4780 127° Southeast  Level Estimated
03:13PM 48.9233 7.5922 127° Southeast  Level Estimated
03:14PM 48.8671 7.7062 127° Southeast  Level Estimated
03:15PM 48.8107 7.8200 127° Southeast  Level Estimated
03:16PM 48.7543 7.9334 127° Southeast  Level Estimated
03:17PM 48.6977 8.0466 127° Southeast  Level Estimated
03:18PM 48.6410 8.1596 127° Southeast  Level Estimated
03:19PM 48.5842 8.2723 127° Southeast  Level Estimated
03:20PM 48.5273 8.3848 127° Southeast  Level Estimated
03:21PM 48.4703 8.4970 127° Southeast  Level Estimated
03:22PM 48.4132 8.6089 128° Southeast  Level Estimated
03:23PM 48.3560 8.7206 128° Southeast  Level Estimated
03:24PM 48.2986 8.8321 128° Southeast  Level Estimated
03:25PM 48.2412 8.9433 128° Southeast  Level Estimated
03:26PM 48.1837 9.0542 128° Southeast  Level Estimated
03:27PM 48.1260 9.1649 128° Southeast  Level Estimated
03:28PM 48.0682 9.2754 128° Southeast  Level Estimated
03:29PM 48.0104 9.3856 128° Southeast  Level Estimated
03:30PM 47.9524 9.4955 128° Southeast  Level Estimated
03:31PM 47.8943 9.6053 128° Southeast  Level Estimated
03:32PM 47.8361 9.7147 128° Southeast  Level Estimated
03:33PM 47.7778 9.8239 128° Southeast  Level Estimated
03:34PM 47.7195 9.9329 129° Southeast  Level Estimated
03:35PM 47.6610 10.0416 129° Southeast  Level Estimated
03:36PM 47.6024 10.1501 129° Southeast  Level Estimated
03:37PM 47.5437 10.2584 129° Southeast  Level Estimated
03:38PM 47.4849 10.3664 129° Southeast  Level Estimated
03:39PM 47.4260 10.4741 129° Southeast  Level Estimated
03:40PM 47.3670 10.5816 129° Southeast  Level Estimated
03:41PM 47.3079 10.6889 129° Southeast  Level Estimated
03:42PM 47.2487 10.7960 129° Southeast  Level Estimated
03:43PM 47.1894 10.9028 129° Southeast  Level Estimated
03:44PM 47.1300 11.0093 129° Southeast  Level Estimated
03:45PM 47.0705 11.1156 129° Southeast  Level Estimated
03:46PM 47.0109 11.2217 129° Southeast  Level Estimated
03:47PM 46.9512 11.3276 130° Southeast  Level Estimated
03:48PM 46.8914 11.4332 130° Southeast  Level Estimated
03:49PM 46.8315 11.5386 130° Southeast  Level Estimated
03:50PM 46.7715 11.6437 130° Southeast  Level Estimated
03:51PM 46.7114 11.7486 130° Southeast  Level Estimated
03:52PM 46.6512 11.8533 130° Southeast  Level Estimated
03:53PM 46.5910 11.9577 130° Southeast  Level Estimated
03:54PM 46.5306 12.0619 130° Southeast  Level Estimated
03:55PM 46.4701 12.1659 130° Southeast  Level Estimated
03:56PM 46.4096 12.2697 130° Southeast  Level Estimated
03:57PM 46.3489 12.3732 130° Southeast  Level Estimated
03:58PM 46.2882 12.4765 130° Southeast  Level Estimated
03:59PM 46.2274 12.5795 130° Southeast  Level Estimated
04:00PM 46.1665 12.6824 131° Southeast  Level Estimated
04:01PM 46.1054 12.7850 131° Southeast  Level Estimated
04:02PM 46.0443 12.8873 131° Southeast  Level Estimated
04:03PM 45.9831 12.9895 131° Southeast  Level Estimated
04:04PM 45.9218 13.0914 131° Southeast  Level Estimated
04:05PM 45.8590 13.1954 131° Southeast  Level Estimated
04:06PM 45.7962 13.2992 131° Southeast  Level Estimated
04:07PM 45.7332 13.4028 131° Southeast  Level Estimated
04:08PM 45.6701 13.5061 131° Southeast  Level Estimated
04:09PM 45.6069 13.6092 131° Southeast  Level Estimated
04:10PM 45.5437 13.7120 131° Southeast  Level Estimated
04:11PM 45.4804 13.8146 131° Southeast  Level Estimated
04:12PM 45.4169 13.9170 131° Southeast  Level Estimated
04:13PM 45.3534 14.0192 131° Southeast  Level Estimated
04:14PM 45.2898 14.1211 132° Southeast  Level Estimated
04:15PM 45.2261 14.2228 132° Southeast  Level Estimated
04:16PM 45.1623 14.3243 132° Southeast  Level Estimated
04:17PM 45.0984 14.4255 132° Southeast  Level Estimated
04:18PM 45.0344 14.5266 132° Southeast  Level Estimated
04:19PM 44.9703 14.6273 132° Southeast  Level Estimated
04:20PM 44.9062 14.7279 132° Southeast  Level Estimated
04:21PM 44.8419 14.8283 132° Southeast  Level Estimated
04:22PM 44.7776 14.9284 132° Southeast  Level Estimated
04:23PM 44.7132 15.0283 132° Southeast  Level Estimated
04:24PM 44.6487 15.1280 132° Southeast  Level Estimated
04:25PM 44.5841 15.2274 132° Southeast  Level Estimated
04:26PM 44.5194 15.3267 132° Southeast  Level Estimated
04:27PM 44.4546 15.4257 132° Southeast  Level Estimated
04:28PM 44.3898 15.5245 133° Southeast  Level Estimated
04:29PM 44.3248 15.6230 133° Southeast  Level Estimated
04:30PM 44.2598 15.7214 133° Southeast  Level Estimated
04:31PM 44.1947 15.8195 133° Southeast  Level Estimated
04:32PM 44.1295 15.9175 133° Southeast  Level Estimated
04:33PM 44.0643 16.0152 133° Southeast  Level Estimated
04:34PM 43.9989 16.1127 133° Southeast  Level Estimated
04:35PM 43.9335 16.2099 133° Southeast  Level Estimated
04:36PM 43.8680 16.3070 133° Southeast  Level Estimated
04:37PM 43.8023 16.4039 133° Southeast  Level Estimated
04:38PM 43.7367 16.5005 133° Southeast  Level Estimated
04:39PM 43.6709 16.5969 133° Southeast  Level Estimated
04:40PM 43.6051 16.6931 133° Southeast  Level Estimated
04:41PM 43.5391 16.7891 133° Southeast  Level Estimated
04:42PM 43.4731 16.8849 133° Southeast  Level Estimated
04:43PM 43.4070 16.9805 134° Southeast  Level Estimated
04:44PM 43.3409 17.0759 134° Southeast  Level Estimated
04:45PM 43.2746 17.1710 134° Southeast  Level Estimated
04:46PM 43.2083 17.2660 134° Southeast  Level Estimated
04:47PM 43.1419 17.3608 134° Southeast  Level Estimated
04:48PM 43.0754 17.4553 134° Southeast  Level Estimated
04:49PM 43.0089 17.5497 134° Southeast  Level Estimated
04:50PM 42.9422 17.6438 134° Southeast  Level Estimated
04:51PM 42.8755 17.7377 134° Southeast  Level Estimated
04:52PM 42.8087 17.8315 134° Southeast  Level Estimated
04:53PM 42.7419 17.9250 134° Southeast  Level Estimated
04:54PM 42.6749 18.0183 134° Southeast  Level Estimated
04:55PM 42.6079 18.1115 134° Southeast  Level Estimated
04:56PM 42.5408 18.2044 134° Southeast  Level Estimated
04:57PM 42.4737 18.2971 134° Southeast  Level Estimated
04:58PM 42.4064 18.3896 135° Southeast  Level Estimated
04:59PM 42.3391 18.4820 135° Southeast  Level Estimated
05:00PM 42.2717 18.5741 135° Southeast  Level Estimated
05:01PM 42.2043 18.6660 135° Southeast  Level Estimated
05:02PM 42.1367 18.7578 135° Southeast  Level Estimated
05:03PM 42.0691 18.8493 135° Southeast  Level Estimated
05:04PM 42.0014 18.9407 135° Southeast  Level Estimated
05:05PM 41.9337 19.0318 135° Southeast  Level Estimated
05:06PM 41.8659 19.1228 135° Southeast  Level Estimated
05:07PM 41.7980 19.2136 135° Southeast  Level Estimated
05:08PM 41.7300 19.3041 135° Southeast  Level Estimated
05:09PM 41.6620 19.3945 135° Southeast  Level Estimated
05:10PM 41.5938 19.4847 135° Southeast  Level Estimated